createdAt,value
2023-05-05T00:02:19.547Z,58.04
2023-05-05T00:05:24.658Z,57.56
2023-05-05T00:08:29.200Z,58.57
2023-05-05T00:11:32.760Z,57.61
2023-05-05T00:14:36.692Z,58.07
2023-05-05T00:17:41.778Z,57.91
2023-05-05T00:20:47.096Z,58.57
2023-05-05T00:23:50.493Z,59.75
2023-05-05T00:26:54.248Z,59.02
2023-05-05T00:29:57.824Z,59.50
2023-05-05T00:33:03.385Z,59.70
2023-05-05T00:36:07.466Z,58.68
2023-05-05T00:39:12.043Z,58.75
2023-05-05T00:42:16.406Z,59.02
2023-05-05T00:45:21.478Z,58.51
2023-05-05T00:48:26.882Z,57.91
2023-05-05T00:51:31.403Z,58.09
2023-05-05T00:54:35.839Z,58.70
2023-05-05T00:57:39.724Z,58.11
2023-05-05T01:00:43.212Z,58.18
2023-05-05T01:03:48.497Z,59.50
2023-05-05T01:07:04.896Z,58.54
2023-05-05T01:10:20.393Z,58.25
2023-05-05T01:13:33.768Z,59.83
2023-05-05T01:16:42.059Z,59.98
2023-05-05T01:20:00.182Z,58.63
2023-05-05T01:23:10.902Z,58.48
2023-05-05T01:26:29.047Z,59.28
2023-05-05T01:30:04.504Z,58.61
2023-05-05T01:33:15.741Z,58.68
2023-05-05T01:36:24.618Z,60.72
2023-05-05T01:39:34.740Z,61.16
2023-05-05T01:42:42.707Z,62.41
2023-05-05T01:45:48.097Z,63.52
2023-05-05T01:48:55.014Z,65.99
2023-05-05T01:52:00.827Z,63.71
2023-05-05T01:55:07.851Z,62.36
2023-05-05T01:58:13.490Z,64.23
2023-05-05T02:01:20.522Z,63.29
2023-05-05T02:04:26.171Z,64.33
2023-05-05T02:07:32.868Z,64.00
2023-05-05T02:10:40.918Z,63.56
2023-05-05T02:13:46.196Z,63.72
2023-05-05T02:16:54.015Z,64.33
2023-05-05T02:20:02.334Z,66.17
2023-05-05T02:23:08.388Z,66.48
2023-05-05T02:26:17.074Z,65.03
2023-05-05T02:29:47.505Z,64.59
2023-05-05T02:32:57.147Z,63.73
2023-05-05T02:36:13.829Z,65.13
2023-05-05T02:39:31.954Z,65.30
2023-05-05T02:42:42.916Z,65.88
2023-05-05T02:45:49.190Z,66.06
2023-05-05T02:48:54.037Z,65.95
2023-05-05T02:51:59.337Z,66.62
2023-05-05T02:55:08.710Z,69.92
2023-05-05T02:58:25.710Z,67.66
2023-05-05T03:01:37.835Z,66.34
2023-05-05T03:04:46.462Z,65.54
2023-05-05T03:07:56.869Z,66.28
2023-05-05T03:11:07.860Z,68.07
2023-05-05T03:14:18.443Z,67.11
2023-05-05T03:17:25.687Z,67.22
2023-05-05T03:20:30.786Z,66.64
2023-05-05T03:23:40.875Z,65.71
2023-05-05T03:26:51.552Z,65.62
2023-05-05T03:29:58.784Z,66.72
2023-05-05T03:33:03.561Z,66.12
2023-05-05T03:36:07.967Z,65.29
2023-05-05T03:39:13.432Z,64.27
2023-05-05T03:42:17.626Z,63.74
2023-05-05T03:45:21.687Z,64.08
2023-05-05T03:48:25.857Z,63.71
2023-05-05T03:51:29.604Z,63.45
2023-05-05T03:54:37.325Z,63.22
2023-05-05T03:57:40.834Z,63.24
2023-05-05T04:00:44.818Z,64.38
2023-05-05T04:03:48.413Z,65.55
2023-05-05T04:06:52.390Z,64.25
2023-05-05T04:09:57.981Z,65.17
2023-05-05T04:13:02.152Z,65.13
2023-05-05T04:16:08.846Z,64.62
2023-05-05T04:19:14.531Z,64.03
2023-05-05T04:22:18.144Z,63.83
2023-05-05T04:25:23.509Z,63.41
2023-05-05T04:28:27.380Z,63.90
2023-05-05T04:31:32.167Z,66.18
2023-05-05T04:34:36.298Z,67.14
2023-05-05T04:37:40.377Z,65.96
2023-05-05T04:40:46.327Z,66.91
2023-05-05T04:43:50.169Z,66.53
2023-05-05T04:46:53.814Z,66.56
2023-05-05T04:49:58.164Z,65.35
2023-05-05T04:53:01.975Z,65.29
2023-05-05T04:56:08.027Z,65.01
2023-05-05T04:59:11.756Z,65.20
2023-05-05T05:02:15.717Z,64.35
2023-05-05T05:05:19.519Z,66.19
2023-05-05T05:08:24.136Z,66.47
2023-05-05T05:11:29.244Z,67.95
2023-05-05T05:14:38.159Z,66.78
2023-05-05T05:17:42.503Z,65.66
2023-05-05T05:20:47.200Z,64.54
2023-05-05T05:23:51.538Z,63.86
2023-05-05T05:26:57.539Z,64.06
2023-05-05T05:30:01.571Z,63.60
2023-05-05T05:33:07.993Z,62.92
2023-05-05T05:36:11.748Z,63.00
2023-05-05T05:39:15.668Z,62.35
2023-05-05T05:42:20.969Z,61.55
2023-05-05T05:45:25.270Z,61.42
2023-05-05T05:48:30.003Z,61.31
2023-05-05T05:51:35.753Z,60.33
2023-05-05T05:54:49.116Z,59.67
2023-05-05T05:57:57.745Z,59.49
2023-05-05T06:01:04.095Z,58.49
2023-05-05T06:04:08.754Z,58.19
2023-05-05T06:07:14.445Z,57.29
2023-05-05T06:10:26.399Z,56.16
2023-05-05T06:13:36.230Z,55.73
2023-05-05T06:16:41.630Z,56.04
2023-05-05T06:19:49.305Z,56.09
2023-05-05T06:22:53.604Z,54.67
2023-05-05T06:25:57.752Z,53.36
2023-05-05T06:29:03.015Z,51.66
2023-05-05T06:32:08.521Z,51.97
2023-05-05T06:35:12.508Z,51.84
2023-05-05T06:38:16.043Z,50.56
2023-05-05T06:41:19.953Z,49.58
2023-05-05T06:44:25.256Z,48.03
2023-05-05T06:47:28.847Z,45.25
2023-05-05T06:50:32.941Z,44.02
2023-05-05T06:53:36.579Z,42.84
2023-05-05T06:56:41.044Z,41.90
2023-05-05T06:59:45.785Z,41.78
2023-05-05T07:02:49.699Z,42.17
2023-05-05T07:05:53.917Z,40.40
2023-05-05T07:08:58.009Z,42.63
2023-05-05T07:12:02.032Z,44.17
2023-05-05T07:15:23.286Z,45.07
2023-05-05T07:18:30.688Z,45.94
2023-05-05T07:21:35.481Z,46.73
2023-05-05T07:24:38.958Z,44.84
2023-05-05T07:27:42.966Z,43.96
2023-05-05T07:30:47.878Z,43.32
2023-05-05T07:33:52.181Z,43.94
2023-05-05T07:36:56.424Z,43.74
2023-05-05T07:40:00.327Z,43.16
2023-05-05T07:43:04.848Z,43.36
2023-05-05T07:46:10.134Z,43.01
2023-05-05T07:49:13.709Z,43.40
2023-05-05T07:52:46.803Z,43.88
2023-05-05T07:55:55.211Z,41.97
2023-05-05T07:58:59.212Z,42.62
2023-05-05T08:02:04.149Z,46.04
2023-05-05T08:05:09.475Z,46.04
2023-05-05T08:08:13.334Z,44.89
2023-05-05T08:11:17.334Z,45.68
2023-05-05T08:14:22.009Z,45.11
2023-05-05T08:17:27.348Z,44.60
2023-05-05T08:20:31.053Z,45.24
2023-05-05T08:23:35.272Z,46.78
2023-05-05T08:26:38.806Z,47.64
2023-05-05T08:29:42.660Z,47.40
2023-05-05T08:32:48.182Z,46.83
2023-05-05T08:35:52.142Z,47.00
2023-05-05T08:38:55.814Z,47.59
2023-05-05T08:41:59.694Z,48.65
2023-05-05T08:45:03.337Z,48.27
2023-05-05T08:48:10.306Z,49.05
